Time;durP1;ratioP1;P1;durP2;ratioP2;P2;SDS_P1;SDS_P2;PMS_P1;PMS_P2;Temp;Humidity;BMP_temperature;BMP_pressure;BME280_temperature;BME280_humidity;BME280_pressure;Samples;Min_cycle;Max_cycle;Signal;HPM_P1;HPM_P2
2023/10/02 00:01:51;;;;;;;47.85;20.95;;;17.40;99.90;;;;;;5075163;28;20041;-78
2023/10/02 00:04:20;;;;;;;50.63;22.13;;;17.40;99.90;;;;;;5075046;28;20040;-78
2023/10/02 00:06:47;;;;;;;49.58;21.55;;;17.40;99.90;;;;;;5073925;28;20127;-77
2023/10/02 00:09:16;;;;;;;49.85;21.27;;;17.40;99.90;;;;;;5073366;28;20106;-77
2023/10/02 00:11:41;;;;;;;51.25;20.15;;;17.40;99.90;;;;;;5073460;28;20527;-78
2023/10/02 00:14:26;;;;;;;58.05;22.58;;;17.40;99.90;;;;;;5074863;28;20127;-78
2023/10/02 00:17:04;;;;;;;45.58;19.20;;;17.40;99.90;;;;;;5074806;28;20040;-78
2023/10/02 00:19:36;;;;;;;44.08;20.00;;;17.40;99.90;;;;;;5074300;28;20416;-78
2023/10/02 00:25:07;;;;;;;49.17;18.60;;;17.40;99.90;;;;;;5074583;28;20040;-78
2023/10/02 00:27:36;;;;;;;52.28;20.23;;;17.40;99.90;;;;;;5074146;28;20495;-78
2023/10/02 00:30:07;;;;;;;49.00;19.95;;;17.40;99.90;;;;;;5074217;28;20049;-78
2023/10/02 00:32:34;;;;;;;51.13;20.73;;;17.40;99.90;;;;;;5073318;28;20054;-78
2023/10/02 00:35:02;;;;;;;50.10;20.25;;;17.40;99.90;;;;;;5074435;28;20101;-78
2023/10/02 00:37:44;;;;;;;53.50;22.50;;;17.40;99.90;;;;;;5074508;28;20537;-78
2023/10/02 00:40:21;;;;;;;47.75;20.88;;;17.40;99.90;;;;;;5073313;28;20492;-78
2023/10/02 00:42:58;;;;;;;54.85;20.98;;;17.40;99.90;;;;;;5074264;28;20037;-78
2023/10/02 00:45:29;;;;;;;52.85;20.75;;;17.40;99.90;;;;;;5074679;28;20040;-78
2023/10/02 00:48:24;;;;;;;50.20;20.75;;;17.40;99.90;;;;;;5074027;28;20488;-78
2023/10/02 00:50:49;;;;;;;51.30;20.92;;;17.40;99.90;;;;;;5073957;28;20050;-78
2023/10/02 00:53:15;;;;;;;44.60;21.02;;;17.30;99.90;;;;;;5072669;28;20127;-78
2023/10/02 00:55:45;;;;;;;47.60;20.30;;;17.30;99.90;;;;;;5072649;28;20052;-78
2023/10/02 00:58:11;;;;;;;47.72;19.95;;;17.30;99.90;;;;;;5072916;28;20090;-78
2023/10/02 01:00:37;;;;;;;49.67;20.60;;;17.30;99.90;;;;;;5074026;28;20037;-78
2023/10/02 01:03:14;;;;;;;49.22;21.27;;;17.30;99.90;;;;;;5072753;28;20045;-78
2023/10/02 01:05:41;;;;;;;51.95;21.27;;;17.30;99.90;;;;;;5073788;28;20050;-78
2023/10/02 01:08:24;;;;;;;54.88;21.42;;;17.30;99.90;;;;;;5072183;28;20040;-78
2023/10/02 01:10:56;;;;;;;45.10;20.05;;;17.20;99.90;;;;;;5073893;28;20048;-78
2023/10/02 01:13:35;;;;;;;52.65;21.77;;;17.20;99.90;;;;;;5073839;28;20044;-78
2023/10/02 01:16:08;;;;;;;44.72;19.55;;;17.20;99.90;;;;;;5073884;28;20037;-77
2023/10/02 01:18:38;;;;;;;42.83;20.77;;;17.10;99.90;;;;;;5072380;28;20052;-78
2023/10/02 01:21:11;;;;;;;51.55;21.13;;;17.10;99.90;;;;;;5073756;28;20037;-78
2023/10/02 01:24:06;;;;;;;55.42;22.42;;;17.20;99.90;;;;;;5072549;28;20110;-78
2023/10/02 01:26:37;;;;;;;50.40;22.13;;;17.10;99.90;;;;;;5073413;28;20048;-77
2023/10/02 01:29:06;;;;;;;48.38;21.55;;;17.10;99.90;;;;;;5073622;28;20056;-78
2023/10/02 01:31:32;;;;;;;52.17;21.42;;;17.10;99.90;;;;;;5073631;28;20045;-78
2023/10/02 01:34:07;;;;;;;47.67;20.02;;;17.10;99.90;;;;;;5072275;28;20442;-78
2023/10/02 01:36:33;;;;;;;46.63;21.50;;;17.10;99.90;;;;;;5073541;28;20442;-77
2023/10/02 01:39:15;;;;;;;48.88;21.50;;;17.10;99.90;;;;;;5072103;28;20040;-78
2023/10/02 01:41:48;;;;;;;58.67;21.92;;;17.00;99.90;;;;;;5073603;28;20044;-78
2023/10/02 01:44:20;;;;;;;46.13;20.50;;;17.00;99.90;;;;;;5073457;28;20047;-78
2023/10/02 01:46:55;;;;;;;50.17;20.15;;;17.00;99.90;;;;;;5072246;28;20044;-78
2023/10/02 01:49:26;;;;;;;46.65;20.70;;;17.00;99.90;;;;;;5071969;28;20462;-78
2023/10/02 01:52:08;;;;;;;47.60;20.42;;;17.00;99.90;;;;;;5073484;28;20040;-78
2023/10/02 01:54:34;;;;;;;55.85;21.90;;;17.10;99.90;;;;;;5072331;28;20475;-78
2023/10/02 01:57:00;;;;;;;44.80;19.88;;;17.00;99.90;;;;;;5073387;28;20120;-78
2023/10/02 01:59:26;;;;;;;47.13;20.85;;;17.00;99.90;;;;;;5072012;28;20462;-78
2023/10/02 02:01:57;;;;;;;47.40;20.20;;;17.00;99.90;;;;;;5073334;28;20051;-78
2023/10/02 02:04:27;;;;;;;47.17;20.40;;;17.00;99.90;;;;;;5073438;28;20098;-78
2023/10/02 02:06:56;;;;;;;51.97;20.50;;;17.00;99.90;;;;;;5073293;28;20124;-78
2023/10/02 02:09:35;;;;;;;49.42;20.40;;;16.90;99.90;;;;;;5073189;28;20048;-78
2023/10/02 02:12:06;;;;;;;44.70;20.30;;;17.00;99.90;;;;;;5071929;28;20111;-78
2023/10/02 02:14:33;;;;;;;49.53;21.88;;;17.00;99.90;;;;;;5072119;28;20056;-78
2023/10/02 02:16:59;;;;;;;53.88;21.77;;;16.90;99.90;;;;;;5073153;28;20051;-78
2023/10/02 02:19:25;;;;;;;47.83;21.75;;;17.00;99.90;;;;;;5071774;28;20128;-78
2023/10/02 02:21:56;;;;;;;51.78;22.55;;;16.90;99.90;;;;;;5074965;28;20150;-77
2023/10/02 02:24:24;;;;;;;52.95;22.35;;;16.90;99.90;;;;;;5075713;28;20059;-78
2023/10/02 02:26:57;;;;;;;50.42;23.33;;;16.90;99.90;;;;;;5076931;28;20111;-78
2023/10/02 02:29:26;;;;;;;50.53;23.48;;;16.90;99.90;;;;;;5075712;28;20110;-78
2023/10/02 02:31:53;;;;;;;51.75;24.58;;;16.80;99.90;;;;;;5076799;28;20043;-78
2023/10/02 02:34:20;;;;;;;52.53;25.70;;;16.90;99.90;;;;;;5075687;28;20071;-78
2023/10/02 02:36:49;;;;;;;54.28;24.15;;;16.90;99.90;;;;;;5075388;28;20559;-78
2023/10/02 02:39:15;;;;;;;58.22;25.73;;;16.80;99.90;;;;;;5076718;28;20048;-78
2023/10/02 02:42:08;;;;;;;57.60;27.02;;;16.80;99.90;;;;;;5075386;28;20102;-78
2023/10/02 02:44:43;;;;;;;;;;;16.80;99.90;;;;;;5075682;28;20055;-78
2023/10/02 02:47:09;;;;;;;63.92;25.10;;;16.80;99.90;;;;;;5075486;28;20429;-78
2023/10/02 02:49:58;;;;;;;54.97;25.63;;;16.80;99.90;;;;;;5075485;28;20052;-78
2023/10/02 02:52:33;;;;;;;59.85;25.98;;;16.80;99.90;;;;;;5075348;28;20518;-78
2023/10/02 02:55:05;;;;;;;56.15;25.05;;;16.80;99.90;;;;;;5075318;28;20075;-78
2023/10/02 02:57:33;;;;;;;52.08;25.02;;;16.80;99.90;;;;;;5075128;28;20496;-78
2023/10/02 03:02:47;;;;;;;60.25;25.92;;;16.70;99.90;;;;;;5076644;28;20511;-77
2023/10/02 03:05:14;;;;;;;58.72;25.95;;;16.70;99.90;;;;;;5075099;28;20484;-77
2023/10/02 03:07:44;;;;;;;64.95;27.60;;;16.60;99.90;;;;;;5076083;28;20044;-77
2023/10/02 03:10:11;;;;;;;58.30;27.52;;;16.60;99.90;;;;;;5075808;28;20120;-77
2023/10/02 03:12:44;;;;;;;63.78;28.20;;;16.60;99.90;;;;;;5074901;28;20063;-77
2023/10/02 03:15:18;;;;;;;63.00;27.42;;;16.60;99.90;;;;;;5074716;28;20040;-78
2023/10/02 03:17:49;;;;;;;59.95;27.95;;;16.60;99.90;;;;;;5074633;28;20251;-77
2023/10/02 03:20:22;;;;;;;67.53;27.63;;;16.60;99.90;;;;;;5075487;28;20057;-77
2023/10/02 03:22:53;;;;;;;63.05;28.13;;;16.50;99.90;;;;;;5074873;28;20079;-77
2023/10/02 03:27:54;;;;;;;59.97;28.08;;;16.50;99.90;;;;;;5074535;28;20067;-77
2023/10/02 03:30:35;;;;;;;57.30;29.40;;;16.50;99.90;;;;;;5075707;28;20056;-78
2023/10/02 03:33:17;;;;;;;71.07;30.75;;;16.40;99.90;;;;;;5074593;28;20135;-78
2023/10/02 03:35:58;;;;;;;63.13;29.63;;;16.40;99.90;;;;;;5075646;28;20041;-77
2023/10/02 03:38:32;;;;;;;59.53;26.77;;;16.40;99.90;;;;;;5074497;28;20287;-78
2023/10/02 03:41:02;;;;;;;63.25;30.40;;;16.40;99.90;;;;;;5074231;28;20087;-77
2023/10/02 03:43:35;;;;;;;70.45;31.55;;;16.30;99.90;;;;;;5075514;28;20074;-77
2023/10/02 03:46:02;;;;;;;62.83;30.13;;;16.30;99.90;;;;;;5075185;28;20391;-77
2023/10/02 03:48:28;;;;;;;66.20;31.52;;;16.30;99.90;;;;;;5075012;28;20048;-77
2023/10/02 03:50:56;;;;;;;72.55;32.63;;;16.30;99.90;;;;;;5073967;28;20051;-77
2023/10/02 03:53:28;;;;;;;72.95;30.83;;;16.30;99.90;;;;;;5075179;28;20499;-77
2023/10/02 03:56:36;;;;;;;65.10;32.35;;;16.30;99.90;;;;;;5075253;28;20040;-77
2023/10/02 03:58:51;;;;;;;63.95;30.90;;;16.30;99.90;;;;;;5074054;28;20063;-77
2023/10/02 04:01:32;;;;;;;76.00;33.70;;;16.30;99.90;;;;;;5074946;28;20127;-77
2023/10/02 04:04:19;;;;;;;69.10;30.83;;;16.40;99.90;;;;;;5075066;28;20040;-77
2023/10/02 04:06:47;;;;;;;67.00;30.80;;;16.30;99.90;;;;;;5073810;28;20062;-77
2023/10/02 04:11:55;;;;;;;81.80;32.60;;;16.40;99.90;;;;;;5073771;28;20147;-77
2023/10/02 04:14:31;;;;;;;68.80;33.05;;;16.40;99.90;;;;;;5073612;28;20131;-77
2023/10/02 04:17:09;;;;;;;75.53;32.17;;;16.40;99.90;;;;;;5073731;28;20041;-77
2023/10/02 04:19:36;;;;;;;74.05;33.50;;;16.40;99.90;;;;;;5073185;28;20083;-77
2023/10/02 04:22:06;;;;;;;73.82;32.45;;;16.40;99.90;;;;;;5073223;28;20416;-77
2023/10/02 04:24:51;;;;;;;71.30;31.52;;;16.40;99.90;;;;;;5074523;28;20381;-77
2023/10/02 04:27:24;;;;;;;75.93;31.20;;;16.40;99.90;;;;;;5072974;28;20051;-77
2023/10/02 04:32:52;;;;;;;76.75;32.53;;;16.30;99.90;;;;;;5072244;28;20144;-77
2023/10/02 04:38:08;;;;;;;80.88;34.63;;;16.30;99.90;;;;;;5074120;28;20551;-77
2023/10/02 04:40:44;;;;;;;75.90;33.88;;;16.30;99.90;;;;;;5073200;28;20090;-77
2023/10/02 04:43:19;;;;;;;79.22;34.13;;;16.30;99.90;;;;;;5073978;28;20057;-77
2023/10/02 04:46:08;;;;;;;81.78;35.42;;;16.30;99.90;;;;;;5073017;28;20119;-77
2023/10/02 04:48:45;;;;;;;73.90;35.10;;;16.30;99.90;;;;;;5072708;28;20059;-77
2023/10/02 04:51:12;;;;;;;79.90;35.83;;;16.30;99.90;;;;;;5073042;28;20060;-77
2023/10/02 04:53:42;;;;;;;77.88;34.20;;;16.30;99.90;;;;;;5072988;28;20547;-77
2023/10/02 04:58:51;;;;;;;79.28;35.22;;;16.20;99.90;;;;;;5073016;28;20110;-77
2023/10/02 05:01:29;;;;;;;79.38;35.97;;;16.20;99.90;;;;;;5074089;28;20044;-77
2023/10/02 05:04:07;;;;;;;83.15;36.65;;;16.20;99.90;;;;;;5072852;28;20048;-77
2023/10/02 05:11:55;;;;;;;;;;;16.20;99.90;;;;;;5074310;28;20179;-77
2023/10/02 05:14:26;;;;;;;83.72;35.85;;;16.20;99.90;;;;;;5074231;28;20003;-77
2023/10/02 05:17:16;;;;;;;83.35;37.85;;;16.10;99.90;;;;;;5073834;28;20090;-77
2023/10/02 05:19:56;;;;;;;85.30;37.72;;;16.20;99.90;;;;;;5073218;28;20143;-77
2023/10/02 05:22:27;;;;;;;88.18;36.53;;;16.10;99.90;;;;;;5072352;28;20538;-77
2023/10/02 05:25:18;;;;;;;91.53;38.50;;;16.10;99.90;;;;;;5072587;28;20044;-77
2023/10/02 05:27:40;;;;;;;86.20;37.83;;;16.10;99.90;;;;;;5073155;28;20052;-77
2023/10/02 05:30:17;;;;;;;77.78;36.35;;;16.10;99.90;;;;;;5072369;28;20538;-77
2023/10/02 05:32:43;;;;;;;76.07;35.63;;;16.10;99.90;;;;;;5072895;28;20087;-76
2023/10/02 05:37:45;;;;;;;81.65;37.15;;;16.10;99.90;;;;;;5073712;28;20052;-77
2023/10/02 05:43:09;;;;;;;;;;;16.00;99.90;;;;;;5072470;28;20055;-78
2023/10/02 05:48:31;;;;;;;80.32;36.50;;;16.10;99.90;;;;;;5072200;28;20139;-77
2023/10/02 05:50:58;;;;;;;81.47;37.85;;;16.00;99.90;;;;;;5073397;28;20036;-77
2023/10/02 05:53:26;;;;;;;79.03;36.17;;;16.00;99.90;;;;;;5073252;28;20499;-77
2023/10/02 05:56:05;;;;;;;78.32;37.10;;;16.00;99.90;;;;;;5074956;28;20106;-77
2023/10/02 05:58:32;;;;;;;75.68;35.67;;;16.00;99.90;;;;;;5077499;28;20127;-77
2023/10/02 06:01:03;;;;;;;82.50;37.03;;;16.00;99.90;;;;;;5076153;28;20079;-77
2023/10/02 06:03:36;;;;;;;80.93;38.30;;;15.90;99.90;;;;;;5075872;28;20067;-78
2023/10/02 06:06:16;;;;;;;79.55;37.25;;;15.90;99.90;;;;;;5076161;28;20084;-77
2023/10/02 06:08:51;;;;;;;85.88;38.33;;;15.90;99.90;;;;;;5077201;28;20053;-77
2023/10/02 06:11:26;;;;;;;87.18;38.83;;;16.00;99.90;;;;;;5075791;28;20049;-78
2023/10/02 06:13:57;;;;;;;86.03;37.40;;;15.90;99.90;;;;;;5075986;28;20117;-78
2023/10/02 06:16:29;;;;;;;80.60;37.25;;;15.90;99.90;;;;;;5086219;28;20048;-76
2023/10/02 06:19:02;;;;;;;83.20;37.47;;;16.00;99.90;;;;;;5076042;28;20037;-76
2023/10/02 06:21:31;;;;;;;82.35;36.95;;;15.90;99.90;;;;;;5075501;28;20056;-76
2023/10/02 06:23:58;;;;;;;81.65;35.28;;;15.90;99.90;;;;;;5093508;28;20040;-76
2023/10/02 06:26:49;;;;;;;78.03;37.25;;;16.00;99.90;;;;;;5095696;28;20118;-76
2023/10/02 06:29:16;;;;;;;85.25;37.97;;;16.00;99.90;;;;;;5095175;28;20044;-76
2023/10/02 06:31:42;;;;;;;86.88;35.88;;;16.00;99.90;;;;;;5095522;28;20072;-76
2023/10/02 06:34:11;;;;;;;76.38;35.38;;;16.00;99.90;;;;;;5094062;28;20143;-75
2023/10/02 06:36:47;;;;;;;80.95;36.55;;;16.00;99.90;;;;;;5094236;28;20044;-76
2023/10/02 06:39:17;;;;;;;84.57;37.88;;;16.10;99.90;;;;;;5094326;28;20062;-76
2023/10/02 06:41:45;;;;;;;73.75;36.00;;;16.00;99.90;;;;;;5095453;28;20056;-76
2023/10/02 06:44:16;;;;;;;81.95;36.33;;;16.10;99.90;;;;;;5095415;28;20127;-76
2023/10/02 06:46:55;;;;;;;73.97;35.40;;;16.10;99.90;;;;;;5095221;28;20056;-76
2023/10/02 06:49:20;;;;;;;68.63;33.00;;;16.10;99.90;;;;;;5093861;28;20072;-76
2023/10/02 06:51:49;;;;;;;75.43;34.45;;;16.10;99.90;;;;;;5095258;28;20074;-76
2023/10/02 06:54:19;;;;;;;75.22;33.97;;;16.10;99.90;;;;;;5095315;28;20088;-76
2023/10/02 06:56:45;;;;;;;73.75;35.25;;;16.20;99.90;;;;;;5094020;28;20040;-76
2023/10/02 06:59:12;;;;;;;78.00;35.40;;;16.20;99.90;;;;;;5093641;28;20047;-76
2023/10/02 07:02:04;;;;;;;79.75;35.50;;;16.20;99.90;;;;;;5095063;28;20043;-75
2023/10/02 07:04:34;;;;;;;77.43;36.40;;;16.20;99.90;;;;;;5093933;28;20048;-76
2023/10/02 07:07:03;;;;;;;76.13;33.85;;;16.20;99.90;;;;;;5093140;28;20055;-76
2023/10/02 07:09:39;;;;;;;75.95;35.20;;;16.20;99.90;;;;;;5094619;28;20506;-75
2023/10/02 07:12:08;;;;;;;79.38;34.38;;;16.30;99.90;;;;;;5094682;28;20521;-75
2023/10/02 07:14:37;;;;;;;79.55;34.10;;;16.30;99.90;;;;;;5094607;28;20402;-75
2023/10/02 07:17:23;;;;;;;83.00;36.58;;;16.40;99.90;;;;;;5093671;28;20075;-76
2023/10/02 07:19:52;;;;;;;75.20;35.30;;;16.40;99.90;;;;;;5056151;28;1082986;-76
2023/10/02 07:22:23;;;;;;;79.30;35.80;;;16.40;99.90;;;;;;5095813;28;20051;-76
2023/10/02 07:24:55;;;;;;;76.68;34.85;;;16.40;99.90;;;;;;5094646;28;20048;-75
2023/10/02 07:27:28;;;;;;;72.57;34.58;;;16.50;99.90;;;;;;5094684;28;20055;-76
2023/10/02 07:29:58;;;;;;;76.88;34.67;;;16.50;99.90;;;;;;5095545;28;20047;-76
2023/10/02 07:32:32;;;;;;;75.72;33.60;;;16.50;99.90;;;;;;5095488;28;20486;-76
2023/10/02 07:35:10;;;;;;;84.03;37.03;;;16.50;99.90;;;;;;5095613;28;20044;-76
2023/10/02 07:37:38;;;;;;;77.25;34.67;;;16.50;99.90;;;;;;5094165;28;20094;-75
2023/10/02 07:40:06;;;;;;;80.45;35.22;;;16.60;99.90;;;;;;5094005;28;20064;-76
2023/10/02 07:42:32;;;;;;;81.03;36.40;;;16.50;99.90;;;;;;5094288;28;20060;-76
2023/10/02 07:45:11;;;;;;;83.13;36.33;;;16.60;99.90;;;;;;5093866;28;20047;-76
2023/10/02 07:48:08;;;;;;;78.15;34.53;;;16.70;99.90;;;;;;5094193;28;20072;-77
2023/10/02 07:50:36;;;;;;;71.65;34.42;;;16.70;99.90;;;;;;5094879;28;20048;-77
2023/10/02 07:53:06;;;;;;;80.57;33.95;;;16.80;99.90;;;;;;5094066;28;20094;-76
2023/10/02 07:55:46;;;;;;;82.97;35.83;;;16.80;99.90;;;;;;5093694;28;20051;-76
2023/10/02 07:58:19;;;;;;;80.88;33.78;;;16.80;99.90;;;;;;5093739;28;20086;-75
2023/10/02 08:00:49;;;;;;;76.18;33.92;;;16.90;99.90;;;;;;5093646;28;20044;-76
2023/10/02 08:03:42;;;;;;;69.63;34.80;;;16.90;99.90;;;;;;5095009;28;20123;-76
2023/10/02 08:06:21;;;;;;;;;;;17.00;99.90;;;;;;5095430;28;20056;-76
2023/10/02 08:11:51;;;;;;;75.93;33.83;;;17.10;99.90;;;;;;5093452;28;20139;-76
2023/10/02 08:19:59;;;;;;;79.45;34.60;;;17.20;99.90;;;;;;5093683;28;20138;-76
2023/10/02 08:22:35;;;;;;;79.82;34.53;;;17.20;99.90;;;;;;5094776;28;20075;-76
2023/10/02 08:25:12;;;;;;;76.03;34.00;;;17.20;99.90;;;;;;5093227;28;20048;-76
2023/10/02 08:27:39;;;;;;;76.32;34.75;;;17.20;99.90;;;;;;5094496;28;20048;-76
2023/10/02 08:30:18;;;;;;;79.47;33.08;;;17.30;99.90;;;;;;5094322;28;20514;-76
2023/10/02 08:32:45;;;;;;;75.63;32.67;;;17.40;99.90;;;;;;5094505;28;20132;-76
2023/10/02 08:35:13;;;;;;;73.25;32.92;;;17.40;99.90;;;;;;5094519;28;20174;-76
2023/10/02 08:37:40;;;;;;;80.63;33.30;;;17.50;99.90;;;;;;5094226;28;20403;-76
2023/10/02 08:40:08;;;;;;;82.95;33.28;;;17.60;99.90;;;;;;5094447;28;20075;-76
2023/10/02 08:42:34;;;;;;;77.75;32.28;;;17.60;99.90;;;;;;5094317;28;20036;-76
2023/10/02 08:45:00;;;;;;;78.40;32.67;;;17.60;99.90;;;;;;5092864;28;20446;-76
2023/10/02 08:47:27;;;;;;;83.20;34.08;;;17.70;99.90;;;;;;5094213;28;20032;-76
2023/10/02 08:50:03;;;;;;;80.00;31.63;;;17.70;99.90;;;;;;5094195;28;20161;-76
2023/10/02 08:52:38;;;;;;;77.32;32.40;;;17.80;99.90;;;;;;5092962;28;20097;-75
2023/10/02 08:55:33;;;;;;;77.32;29.77;;;17.90;99.90;;;;;;5092609;28;20438;-76
2023/10/02 08:58:15;;;;;;;74.85;28.27;;;17.90;99.90;;;;;;5092677;28;20059;-76
2023/10/02 09:03:41;;;;;;;74.65;29.92;;;18.00;99.90;;;;;;5073649;28;20058;-76
2023/10/02 09:06:25;;;;;;;77.93;30.13;;;18.00;99.90;;;;;;5073755;28;20077;-76
2023/10/02 09:11:52;;;;;;;68.25;28.92;;;18.00;99.90;;;;;;5036285;28;20057;-75
2023/10/02 09:17:07;;;;;;;79.45;32.80;;;18.10;99.90;;;;;;5073303;28;20381;-76
2023/10/02 09:19:34;;;;;;;81.22;31.52;;;18.20;99.90;;;;;;5076077;28;20855;-76
2023/10/02 09:22:10;;;;;;;75.43;31.60;;;18.10;99.90;;;;;;5080718;28;20048;-75
2023/10/02 09:24:40;;;;;;;75.25;32.40;;;18.20;99.90;;;;;;5074987;28;20079;-75
2023/10/02 09:27:25;;;;;;;79.18;32.85;;;18.30;99.90;;;;;;5072261;28;20049;-75
2023/10/02 09:32:52;;;;;;;83.65;34.10;;;18.40;99.90;;;;;;5067199;28;20492;-76
2023/10/02 09:35:44;;;;;;;75.82;32.70;;;18.40;99.90;;;;;;5080421;28;20404;-76
2023/10/02 09:38:13;;;;;;;78.38;32.30;;;18.50;99.90;;;;;;5072128;28;20050;-76
2023/10/02 09:41:08;;;;;;;73.63;32.95;;;18.60;99.90;;;;;;5071981;28;20377;-76
2023/10/02 09:43:35;;;;;;;68.85;31.08;;;18.60;99.90;;;;;;5072083;28;20079;-76
2023/10/02 09:46:06;;;;;;;74.57;32.55;;;18.60;99.90;;;;;;5073151;28;20068;-76
2023/10/02 09:48:46;;;;;;;67.95;32.10;;;18.70;99.90;;;;;;5071555;28;20059;-76
2023/10/02 09:51:37;;;;;;;73.63;31.58;;;18.70;99.90;;;;;;5071793;28;20132;-76
2023/10/02 09:54:09;;;;;;;64.43;30.10;;;18.70;99.90;;;;;;5071952;28;20519;-75
2023/10/02 09:56:54;;;;;;;69.85;30.10;;;18.70;99.90;;;;;;5070190;28;20056;-76
2023/10/02 09:59:22;;;;;;;62.47;29.83;;;18.70;99.90;;;;;;5070122;28;20053;-76
2023/10/02 10:02:08;;;;;;;67.88;29.95;;;18.80;99.90;;;;;;5071290;28;20123;-76
2023/10/02 10:05:22;;;;;;;70.57;29.42;;;18.80;99.90;;;;;;5071451;28;20048;-77
2023/10/02 10:07:52;;;;;;;;;;;19.00;99.90;;;;;;5072981;28;20102;-77
2023/10/02 10:10:45;;;;;;;64.95;28.15;;;19.10;99.90;;;;;;5088532;28;19943;-76
2023/10/02 10:13:27;;;;;;;59.45;27.05;;;19.20;99.90;;;;;;5071777;28;20048;-77
2023/10/02 10:16:23;;;;;;;59.28;28.58;;;19.30;99.90;;;;;;5071669;28;20067;-77
2023/10/02 10:22:00;;;;;;;62.85;28.80;;;19.40;99.90;;;;;;5072906;28;20052;-77
2023/10/02 10:24:35;;;;;;;60.92;29.58;;;19.50;99.90;;;;;;5072896;28;20058;-77
2023/10/02 10:27:02;;;;;;;57.67;29.20;;;19.60;99.90;;;;;;5072485;28;20415;-76
2023/10/02 10:29:41;;;;;;;53.20;26.85;;;19.60;99.90;;;;;;5071416;28;20044;-77
2023/10/02 10:32:24;;;;;;;53.30;26.48;;;19.60;99.90;;;;;;5075762;28;20116;-76
2023/10/02 10:35:12;;;;;;;48.75;27.15;;;19.70;99.90;;;;;;5092042;28;20542;-77
2023/10/02 10:37:47;;;;;;;54.53;26.73;;;19.70;99.90;;;;;;5091719;28;20056;-77
2023/10/02 10:40:47;;;;;;;46.28;24.42;;;19.80;99.90;;;;;;5091149;28;20044;-76
2023/10/02 10:43:18;;;;;;;49.17;23.70;;;20.00;99.90;;;;;;5095167;28;20060;-77
2023/10/02 10:45:48;;;;;;;54.30;24.65;;;20.00;99.90;;;;;;5095348;28;20552;-77
2023/10/02 10:48:24;;;;;;;47.13;24.20;;;20.20;99.90;;;;;;5096295;28;20503;-76
2023/10/02 10:50:59;;;;;;;48.45;23.05;;;20.30;99.90;;;;;;5096503;28;20079;-77
2023/10/02 10:53:26;;;;;;;50.45;25.33;;;20.40;99.90;;;;;;5095430;28;20479;-76
2023/10/02 10:56:03;;;;;;;50.20;23.60;;;20.40;99.90;;;;;;5096647;28;20082;-77
2023/10/02 10:58:34;;;;;;;49.78;23.30;;;20.50;99.90;;;;;;5096391;28;20376;-76
2023/10/02 11:01:05;;;;;;;54.67;23.05;;;20.60;99.90;;;;;;5095029;28;20051;-76
2023/10/02 11:03:31;;;;;;;79.35;23.17;;;20.70;99.90;;;;;;5095091;28;20044;-76
2023/10/02 11:06:02;;;;;;;44.95;21.55;;;20.80;99.90;;;;;;5096348;28;20039;-76
2023/10/02 11:08:28;;;;;;;73.82;25.10;;;20.80;99.90;;;;;;5096072;28;20047;-77
2023/10/02 11:11:09;;;;;;;38.53;20.15;;;20.90;99.90;;;;;;5095033;28;20040;-76
2023/10/02 11:16:34;;;;;;;36.55;18.55;;;20.90;99.90;;;;;;5095968;28;20062;-77
2023/10/02 11:19:21;;;;;;;33.20;17.73;;;20.90;99.90;;;;;;5095702;28;20385;-77
2023/10/02 11:22:22;;;;;;;34.33;18.63;;;21.00;99.90;;;;;;5096127;28;20052;-76
2023/10/02 11:24:52;;;;;;;41.28;20.45;;;21.00;99.90;;;;;;5094721;28;20044;-76
2023/10/02 11:27:22;;;;;;;40.50;20.17;;;20.90;99.90;;;;;;5094611;28;20093;-76
2023/10/02 11:30:01;;;;;;;35.25;18.58;;;20.90;99.90;;;;;;5095058;28;20130;-77
2023/10/02 11:33:00;;;;;;;43.75;21.00;;;20.90;99.90;;;;;;5094657;28;20051;-77
2023/10/02 11:35:28;;;;;;;36.17;17.63;;;20.90;99.90;;;;;;5094630;28;20084;-76
2023/10/02 11:37:55;;;;;;;35.95;16.98;;;20.80;99.90;;;;;;5095834;28;20040;-76
2023/10/02 11:40:24;;;;;;;32.50;16.75;;;20.90;99.90;;;;;;5094233;28;20047;-77
2023/10/02 11:42:53;;;;;;;37.47;17.50;;;21.00;99.90;;;;;;5094185;28;20044;-77
2023/10/02 11:45:19;;;;;;;34.97;16.67;;;21.10;99.90;;;;;;5094177;28;20052;-76
2023/10/02 11:47:45;;;;;;;33.22;16.15;;;21.10;99.90;;;;;;5084447;28;20072;-76
2023/10/02 11:50:13;;;;;;;29.73;16.02;;;21.10;99.90;;;;;;5075101;28;20121;-77
2023/10/02 11:52:38;;;;;;;33.03;15.43;;;21.10;99.90;;;;;;5074575;28;20055;-76
2023/10/02 11:55:04;;;;;;;31.73;14.45;;;21.10;99.90;;;;;;5074613;28;20041;-76
2023/10/02 11:57:30;;;;;;;28.55;14.23;;;21.10;99.90;;;;;;5073878;28;20076;-76
2023/10/02 11:59:55;;;;;;;29.33;13.25;;;21.10;99.90;;;;;;5075026;28;20044;-76
2023/10/02 12:02:21;;;;;;;29.77;15.45;;;21.10;99.90;;;;;;5074839;28;20080;-76
2023/10/02 12:04:47;;;;;;;26.40;14.30;;;21.10;99.90;;;;;;5075129;28;20064;-76
2023/10/02 12:07:16;;;;;;;24.10;11.55;;;21.10;99.90;;;;;;5075029;28;20052;-77
2023/10/02 12:09:47;;;;;;;24.70;11.82;;;21.10;99.90;;;;;;5074617;28;20050;-77
2023/10/02 12:12:13;;;;;;;29.02;13.60;;;21.10;99.90;;;;;;5074959;28;20052;-77
2023/10/02 12:14:42;;;;;;;25.73;11.48;;;21.10;99.90;;;;;;5074918;28;20063;-77
2023/10/02 12:17:11;;;;;;;27.55;12.75;;;21.20;99.90;;;;;;5073320;28;20098;-77
2023/10/02 12:19:40;;;;;;;30.35;14.82;;;21.20;99.90;;;;;;5074379;28;20471;-77
2023/10/02 12:22:06;;;;;;;22.75;11.95;;;21.20;99.90;;;;;;5073009;28;20132;-76
2023/10/02 12:24:36;;;;;;;25.63;12.45;;;21.30;99.90;;;;;;5072423;28;20547;-76
2023/10/02 12:27:04;;;;;;;26.10;12.40;;;21.30;99.90;;;;;;5073129;28;20070;-76
2023/10/02 12:29:29;;;;;;;20.75;10.90;;;21.40;99.90;;;;;;5074247;28;20050;-77
2023/10/02 12:31:59;;;;;;;25.98;12.27;;;21.40;99.90;;;;;;5073255;28;20123;-76
2023/10/02 12:34:25;;;;;;;24.20;11.73;;;21.50;99.90;;;;;;5074315;28;20036;-76
2023/10/02 12:36:52;;;;;;;22.45;11.77;;;21.60;99.90;;;;;;5072858;28;20473;-76
2023/10/02 12:39:17;;;;;;;21.83;11.98;;;21.50;99.90;;;;;;5074331;28;20041;-77
2023/10/02 12:41:44;;;;;;;27.55;11.93;;;21.50;99.90;;;;;;5074282;28;20121;-76
2023/10/02 12:44:10;;;;;;;25.42;11.90;;;21.50;99.90;;;;;;5073019;28;20076;-76
2023/10/02 12:46:43;;;;;;;27.65;11.68;;;21.50;99.90;;;;;;5074079;28;20494;-76
2023/10/02 12:49:13;;;;;;;23.75;11.88;;;21.40;99.90;;;;;;5072754;28;20108;-76
2023/10/02 12:51:40;;;;;;;29.40;15.38;;;21.30;99.90;;;;;;5074107;28;20040;-76
2023/10/02 12:54:07;;;;;;;30.45;15.20;;;21.20;99.90;;;;;;5074168;28;20053;-76
2023/10/02 12:56:33;;;;;;;27.88;15.88;;;21.10;99.90;;;;;;5073899;28;20055;-76
2023/10/02 12:58:59;;;;;;;31.75;15.77;;;21.00;99.90;;;;;;5072537;28;20052;-77
2023/10/02 13:01:27;;;;;;;26.80;14.43;;;20.80;99.90;;;;;;5074053;28;20142;-77
2023/10/02 13:03:54;;;;;;;32.35;16.05;;;20.80;99.90;;;;;;5073480;28;20098;-77
2023/10/02 13:06:21;;;;;;;31.13;14.52;;;20.70;99.90;;;;;;5073693;28;20075;-76
2023/10/02 13:08:47;;;;;;;32.30;15.68;;;20.70;99.90;;;;;;5073852;28;20067;-76
2023/10/02 13:11:18;;;;;;;38.33;16.73;;;20.70;99.90;;;;;;5073746;28;20049;-76
2023/10/02 13:13:48;;;;;;;35.50;16.85;;;20.60;99.90;;;;;;5073581;28;20046;-76
2023/10/02 13:16:15;;;;;;;30.20;15.80;;;20.40;99.90;;;;;;5073939;28;20124;-76
2023/10/02 13:18:41;;;;;;;29.75;15.57;;;20.40;99.90;;;;;;5073476;28;20147;-76
2023/10/02 13:21:08;;;;;;;35.63;16.23;;;20.30;99.90;;;;;;5073753;28;20558;-76
2023/10/02 13:23:34;;;;;;;34.92;17.42;;;20.20;99.90;;;;;;5072255;28;20046;-76
2023/10/02 13:25:59;;;;;;;34.00;16.00;;;20.20;99.90;;;;;;5072484;28;20424;-77
2023/10/02 13:28:25;;;;;;;36.38;18.15;;;20.20;99.90;;;;;;5072247;28;20048;-76
2023/10/02 13:30:52;;;;;;;33.88;16.02;;;20.20;99.90;;;;;;5073649;28;20041;-76
2023/10/02 13:33:20;;;;;;;34.83;16.20;;;20.20;99.90;;;;;;5073552;28;20052;-77
2023/10/02 13:35:54;;;;;;;35.90;15.70;;;20.20;99.90;;;;;;5072317;28;20075;-77
2023/10/02 13:38:20;;;;;;;32.58;15.35;;;20.20;99.90;;;;;;5073633;28;20044;-77
2023/10/02 13:40:46;;;;;;;31.42;14.82;;;20.20;99.90;;;;;;5071902;28;20056;-76
2023/10/02 13:43:11;;;;;;;32.92;16.38;;;20.20;99.90;;;;;;5072037;28;20128;-76
2023/10/02 13:45:37;;;;;;;42.22;17.48;;;20.10;99.90;;;;;;5073394;28;20047;-76
2023/10/02 13:48:06;;;;;;;33.70;15.60;;;20.10;99.90;;;;;;5071888;28;20044;-77
2023/10/02 13:50:35;;;;;;;29.35;15.20;;;20.10;99.90;;;;;;5073431;28;20097;-76
2023/10/02 13:53:01;;;;;;;30.13;16.67;;;20.10;99.90;;;;;;5071870;28;20090;-76
2023/10/02 13:55:27;;;;;;;31.05;15.43;;;20.00;99.90;;;;;;5073263;28;20040;-76